Time;durP1;ratioP1;P1;durP2;ratioP2;P2;SDS_P1;SDS_P2;PMS_P1;PMS_P2;Temp;Humidity;BMP_temperature;BMP_pressure;BME280_temperature;BME280_humidity;BME280_pressure;Samples;Min_cycle;Max_cycle;Signal;HPM_P1;HPM_P2
2023/02/03 00:01:37;;;;;;;19.50;10.35;;;;;;;;;;5033240;28;20088;-39
2023/02/03 00:04:02;;;;;;;21.67;9.57;;;;;;;;;;5033091;28;20018;-38
2023/02/03 00:06:27;;;;;;;24.10;9.77;;;;;;;;;;5034407;28;20029;-38
2023/02/03 00:08:54;;;;;;;22.13;10.10;;;;;;;;;;5034272;28;20479;-39
2023/02/03 00:11:20;;;;;;;20.30;9.93;;;;;;;;;;5034363;28;20465;-39
2023/02/03 00:13:46;;;;;;;13.07;7.63;;;;;;;;;;5034283;28;20055;-38
2023/02/03 00:16:11;;;;;;;17.48;8.50;;;;;;;;;;5034633;28;20045;-38
2023/02/03 00:18:38;;;;;;;21.45;10.25;;;;;;;;;;5034461;28;20776;-38
2023/02/03 00:21:03;;;;;;;21.52;10.00;;;;;;;;;;5034009;28;20037;-38
2023/02/03 00:23:30;;;;;;;15.80;7.63;;;;;;;;;;5034074;28;20052;-39
2023/02/03 00:25:56;;;;;;;21.85;7.80;;;;;;;;;;5034021;28;20029;-39
2023/02/03 00:28:22;;;;;;;20.60;9.60;;;;;;;;;;5034218;28;20021;-38
2023/02/03 00:30:47;;;;;;;16.88;7.00;;;;;;;;;;5033851;28;20025;-39
2023/02/03 00:33:13;;;;;;;11.90;6.15;;;;;;;;;;5033859;28;20036;-38
2023/02/03 00:35:39;;;;;;;24.27;7.95;;;;;;;;;;5065795;28;20044;-38
2023/02/03 00:38:05;;;;;;;16.90;6.90;;;;;;;;;;5033978;28;20464;-39
2023/02/03 00:40:30;;;;;;;23.13;8.95;;;;;;;;;;5032409;28;20506;-39
2023/02/03 00:42:56;;;;;;;15.07;7.53;;;;;;;;;;5032326;28;20029;-38
2023/02/03 00:45:21;;;;;;;18.98;9.40;;;;;;;;;;5033946;28;20559;-39
2023/02/03 00:47:47;;;;;;;13.75;7.32;;;;;;;;;;5033582;28;20021;-39
2023/02/03 00:50:12;;;;;;;19.00;8.07;;;;;;;;;;5033339;28;20025;-38
2023/02/03 00:52:37;;;;;;;9.35;5.28;;;;;;;;;;5032251;28;20121;-38
2023/02/03 00:55:03;;;;;;;20.27;8.02;;;;;;;;;;5048741;28;20064;-39
2023/02/03 00:57:29;;;;;;;17.13;7.50;;;;;;;;;;5033363;28;20124;-39
2023/02/03 00:59:54;;;;;;;14.80;6.90;;;;;;;;;;5033309;28;20029;-39
2023/02/03 01:02:20;;;;;;;15.73;6.70;;;;;;;;;;5032075;28;20456;-39
2023/02/03 01:04:45;;;;;;;18.95;6.88;;;;;;;;;;5048836;28;20473;-38
2023/02/03 01:07:10;;;;;;;10.75;6.00;;;;;;;;;;5033219;28;20025;-38
2023/02/03 01:09:36;;;;;;;15.57;6.70;;;;;;;;;;5033234;28;20057;-38
2023/02/03 01:12:02;;;;;;;7.00;4.15;;;;;;;;;;5033031;28;20095;-39
2023/02/03 01:14:27;;;;;;;12.25;6.43;;;;;;;;;;5033379;28;20361;-41
2023/02/03 01:16:53;;;;;;;12.15;6.10;;;;;;;;;;5032957;28;20022;-39
2023/02/03 01:19:18;;;;;;;11.50;4.57;;;;;;;;;;5032810;28;20499;-38
2023/02/03 01:21:44;;;;;;;9.23;6.57;;;;;;;;;;5033044;28;20041;-39
2023/02/03 01:24:09;;;;;;;13.73;7.45;;;;;;;;;;5031624;28;20467;-38
2023/02/03 01:26:37;;;;;;;15.23;6.00;;;;;;;;;;5032960;28;20021;-38
2023/02/03 01:29:03;;;;;;;10.85;5.40;;;;;;;;;;5031444;28;20486;-38
2023/02/03 01:31:30;;;;;;;12.02;5.43;;;;;;;;;;5032998;28;20044;-38
2023/02/03 01:33:56;;;;;;;13.90;6.25;;;;;;;;;;5032660;28;20029;-39
2023/02/03 01:36:22;;;;;;;9.18;6.15;;;;;;;;;;5032674;28;20036;-39
2023/02/03 01:38:48;;;;;;;6.95;4.78;;;;;;;;;;5032820;28;20037;-38
2023/02/03 01:41:17;;;;;;;9.27;5.22;;;;;;;;;;5032612;28;20101;-39
2023/02/03 01:43:45;;;;;;;11.35;5.13;;;;;;;;;;5032515;28;20547;-38
2023/02/03 01:46:29;;;;;;;5.45;4.00;;;;;;;;;;5031041;28;20091;-39
2023/02/03 01:48:57;;;;;;;9.18;3.80;;;;;;;;;;5031051;28;20408;-38
2023/02/03 01:51:23;;;;;;;9.55;4.07;;;;;;;;;;5031238;28;20025;-38
2023/02/03 01:53:50;;;;;;;9.63;4.60;;;;;;;;;;5032087;28;20037;-38
2023/02/03 01:56:16;;;;;;;9.15;4.85;;;;;;;;;;5032552;28;20420;-38
2023/02/03 01:58:42;;;;;;;9.50;4.47;;;;;;;;;;5032542;28;20033;-38
2023/02/03 02:01:08;;;;;;;7.15;4.85;;;;;;;;;;5030546;28;20025;-38
2023/02/03 02:03:35;;;;;;;7.00;3.92;;;;;;;;;;5030674;28;20036;-38
2023/02/03 02:06:05;;;;;;;11.50;4.95;;;;;;;;;;5063945;28;20372;-39
2023/02/03 02:08:30;;;;;;;6.03;5.15;;;;;;;;;;5064026;28;20052;-38
2023/02/03 02:10:57;;;;;;;7.18;5.13;;;;;;;;;;5032073;28;20053;-38
2023/02/03 02:13:23;;;;;;;6.03;4.38;;;;;;;;;;5030774;28;20472;-39
2023/02/03 02:15:57;;;;;;;10.73;4.65;;;;;;;;;;5030628;28;20082;-39
2023/02/03 02:18:26;;;;;;;10.98;5.20;;;;;;;;;;5046987;28;20526;-39
2023/02/03 02:20:55;;;;;;;11.80;4.60;;;;;;;;;;5063811;28;20532;-39
2023/02/03 02:23:43;;;;;;;6.95;3.55;;;;;;;;;;5030539;28;20029;-39
2023/02/03 02:26:10;;;;;;;7.60;4.45;;;;;;;;;;5031965;28;20410;-38
2023/02/03 02:28:43;;;;;;;9.98;5.30;;;;;;;;;;5030382;28;20024;-39
2023/02/03 02:31:27;;;;;;;10.73;5.03;;;;;;;;;;5063633;28;20403;-38
2023/02/03 02:33:59;;;;;;;9.50;5.15;;;;;;;;;;5046967;28;20112;-39
2023/02/03 02:36:32;;;;;;;8.23;5.20;;;;;;;;;;5046821;28;20030;-39
2023/02/03 02:39:03;;;;;;;9.90;4.80;;;;;;;;;;5063463;28;20123;-39
2023/02/03 02:41:50;;;;;;;8.73;5.32;;;;;;;;;;5013985;28;20035;-38
2023/02/03 02:44:21;;;;;;;10.85;4.32;;;;;;;;;;5031074;28;20048;-39
2023/02/03 02:46:49;;;;;;;6.18;4.10;;;;;;;;;;5031509;28;20029;-38
2023/02/03 02:49:18;;;;;;;9.00;4.38;;;;;;;;;;5030234;28;20031;-38
2023/02/03 02:51:44;;;;;;;12.18;5.13;;;;;;;;;;5031375;28;20024;-38
2023/02/03 02:54:12;;;;;;;6.47;4.05;;;;;;;;;;5063287;28;20069;-38
2023/02/03 02:56:39;;;;;;;7.78;4.78;;;;;;;;;;5029997;28;20029;-38
2023/02/03 02:59:05;;;;;;;8.05;4.07;;;;;;;;;;5031414;28;20071;-38
2023/02/03 03:01:31;;;;;;;7.57;3.83;;;;;;;;;;5030088;28;20025;-38
2023/02/03 03:03:57;;;;;;;7.30;3.85;;;;;;;;;;5031231;28;20021;-38
2023/02/03 03:06:24;;;;;;;13.57;5.78;;;;;;;;;;5030086;28;20353;-39
2023/02/03 03:08:50;;;;;;;9.65;5.07;;;;;;;;;;5063292;28;20033;-38
2023/02/03 03:11:16;;;;;;;8.55;4.95;;;;;;;;;;5031188;28;20028;-41
2023/02/03 03:13:45;;;;;;;6.90;4.18;;;;;;;;;;5030418;28;20124;-38
2023/02/03 03:16:13;;;;;;;10.63;5.82;;;;;;;;;;5067242;28;20025;-38
2023/02/03 03:18:43;;;;;;;7.82;3.55;;;;;;;;;;5050388;28;20053;-38
2023/02/03 03:21:11;;;;;;;6.25;3.67;;;;;;;;;;5035457;28;20032;-38
2023/02/03 03:23:38;;;;;;;9.10;5.00;;;;;;;;;;5035560;28;20030;-39
2023/02/03 03:26:08;;;;;;;7.72;3.80;;;;;;;;;;5035083;28;20025;-39
2023/02/03 03:28:37;;;;;;;11.35;4.03;;;;;;;;;;5035361;28;20078;-39
2023/02/03 03:31:02;;;;;;;11.57;4.95;;;;;;;;;;5034994;28;20075;-39
2023/02/03 03:33:28;;;;;;;11.10;6.22;;;;;;;;;;5067045;28;20109;-39
2023/02/03 03:35:59;;;;;;;8.13;4.57;;;;;;;;;;5034873;28;20013;-39
2023/02/03 03:38:36;;;;;;;10.20;5.80;;;;;;;;;;5035178;28;20411;-38
2023/02/03 03:41:04;;;;;;;12.27;4.20;;;;;;;;;;5035039;28;20028;-38
2023/02/03 03:43:32;;;;;;;9.68;5.43;;;;;;;;;;5034792;28;20368;-39
2023/02/03 03:46:00;;;;;;;15.40;4.22;;;;;;;;;;5034741;28;20029;-39
2023/02/03 03:48:48;;;;;;;10.77;4.28;;;;;;;;;;5034691;28;20014;-39
2023/02/03 03:51:18;;;;;;;9.50;4.65;;;;;;;;;;5034710;28;20034;-39
2023/02/03 03:53:44;;;;;;;14.15;5.80;;;;;;;;;;5034622;28;20033;-39
2023/02/03 03:56:14;;;;;;;6.78;3.78;;;;;;;;;;5034698;28;20431;-38
2023/02/03 03:58:43;;;;;;;9.18;4.55;;;;;;;;;;5034609;28;20025;-38
2023/02/03 04:01:10;;;;;;;10.65;4.93;;;;;;;;;;5034412;28;20116;-38
2023/02/03 04:03:39;;;;;;;7.97;4.35;;;;;;;;;;5034559;28;20021;-38
2023/02/03 04:06:05;;;;;;;8.82;4.55;;;;;;;;;;5034670;28;20038;-38
2023/02/03 04:08:31;;;;;;;5.95;4.72;;;;;;;;;;5034598;28;20022;-39
2023/02/03 04:10:56;;;;;;;8.98;4.65;;;;;;;;;;5034507;28;20530;-39
2023/02/03 04:13:21;;;;;;;9.48;3.95;;;;;;;;;;5034287;28;20022;-38
2023/02/03 04:15:47;;;;;;;7.78;4.70;;;;;;;;;;5034190;28;20029;-38
2023/02/03 04:18:13;;;;;;;6.72;3.65;;;;;;;;;;5032571;28;20053;-39
2023/02/03 04:20:38;;;;;;;7.30;3.85;;;;;;;;;;5034315;28;20136;-38
2023/02/03 04:23:04;;;;;;;9.65;4.35;;;;;;;;;;5034047;28;20519;-39
2023/02/03 04:25:29;;;;;;;5.00;4.47;;;;;;;;;;5033528;28;20030;-38
2023/02/03 04:27:55;;;;;;;6.50;4.68;;;;;;;;;;5034002;28;20379;-39
2023/02/03 04:30:20;;;;;;;11.60;6.25;;;;;;;;;;5033940;28;20059;-38
2023/02/03 04:32:45;;;;;;;13.68;4.53;;;;;;;;;;5034184;28;20349;-38
2023/02/03 04:35:11;;;;;;;8.25;4.50;;;;;;;;;;5033824;28;20407;-39
2023/02/03 04:37:37;;;;;;;14.60;5.05;;;;;;;;;;5033734;28;20032;-39
2023/02/03 04:40:03;;;;;;;7.90;3.45;;;;;;;;;;5034076;28;20056;-39
2023/02/03 04:42:28;;;;;;;5.18;3.90;;;;;;;;;;5033703;28;20518;-38
2023/02/03 04:44:53;;;;;;;8.95;4.97;;;;;;;;;;5033864;28;20027;-39
2023/02/03 04:47:19;;;;;;;7.82;3.63;;;;;;;;;;5033703;28;20032;-39
2023/02/03 04:49:45;;;;;;;9.00;4.07;;;;;;;;;;5033667;28;20065;-38
2023/02/03 04:52:10;;;;;;;7.63;3.88;;;;;;;;;;5033717;28;20029;-38
2023/02/03 04:54:36;;;;;;;9.63;4.60;;;;;;;;;;5033527;28;20056;-39
2023/02/03 04:57:02;;;;;;;9.43;4.65;;;;;;;;;;5033539;28;20037;-39
2023/02/03 04:59:28;;;;;;;13.20;5.40;;;;;;;;;;5033427;28;20026;-39
2023/02/03 05:01:53;;;;;;;5.90;3.63;;;;;;;;;;5033360;28;20022;-38
2023/02/03 05:04:18;;;;;;;7.05;4.07;;;;;;;;;;5033630;28;20460;-38
2023/02/03 05:06:44;;;;;;;10.32;5.55;;;;;;;;;;5033280;28;20026;-39
2023/02/03 05:09:09;;;;;;;6.90;3.85;;;;;;;;;;5033144;28;20053;-40
2023/02/03 05:11:35;;;;;;;11.73;3.72;;;;;;;;;;5033295;28;20375;-38
2023/02/03 05:14:00;;;;;;;5.00;3.17;;;;;;;;;;5033261;28;20033;-38
2023/02/03 05:16:25;;;;;;;8.45;3.75;;;;;;;;;;5033053;28;20357;-40
2023/02/03 05:18:51;;;;;;;12.45;5.55;;;;;;;;;;5032857;28;20049;-38
2023/02/03 05:21:17;;;;;;;19.60;5.32;;;;;;;;;;5048626;28;20025;-39
2023/02/03 05:23:42;;;;;;;5.63;4.35;;;;;;;;;;5032895;28;20391;-39
2023/02/03 05:26:08;;;;;;;13.15;5.28;;;;;;;;;;5032881;28;20017;-38
2023/02/03 05:28:33;;;;;;;6.85;5.15;;;;;;;;;;5032808;28;20038;-39
2023/02/03 05:31:00;;;;;;;8.82;5.30;;;;;;;;;;5033131;28;20032;-38
2023/02/03 05:33:25;;;;;;;9.40;4.38;;;;;;;;;;5033045;28;20037;-38
2023/02/03 05:35:51;;;;;;;13.32;5.10;;;;;;;;;;5032410;28;20533;-38
2023/02/03 05:38:16;;;;;;;13.90;5.80;;;;;;;;;;5031959;28;20407;-39
2023/02/03 05:43:26;;;;;;;15.80;5.45;;;;;;;;;;5032691;28;20061;-39
2023/02/03 05:45:51;;;;;;;13.82;5.30;;;;;;;;;;5032572;28;20543;-38
2023/02/03 05:48:17;;;;;;;11.60;4.60;;;;;;;;;;5032542;28;20063;-38
2023/02/03 05:50:42;;;;;;;5.57;3.08;;;;;;;;;;5032768;28;20076;-38
2023/02/03 05:53:08;;;;;;;11.73;5.43;;;;;;;;;;5032391;28;20132;-38
2023/02/03 05:55:33;;;;;;;7.30;4.80;;;;;;;;;;5032572;28;20075;-39
2023/02/03 05:57:59;;;;;;;12.05;4.93;;;;;;;;;;5032086;28;20475;-38
2023/02/03 06:00:25;;;;;;;9.07;4.40;;;;;;;;;;5032388;28;20026;-38
2023/02/03 06:02:55;;;;;;;14.35;6.00;;;;;;;;;;5032262;28;20039;-38
2023/02/03 06:05:21;;;;;;;8.40;4.00;;;;;;;;;;5032174;28;20025;-38
2023/02/03 06:07:46;;;;;;;8.55;5.47;;;;;;;;;;5032151;28;20033;-38
2023/02/03 06:10:12;;;;;;;6.50;4.03;;;;;;;;;;5032030;28;20017;-38
2023/02/03 06:12:37;;;;;;;11.18;4.75;;;;;;;;;;5032031;28;20037;-41
2023/02/03 06:15:03;;;;;;;8.70;4.85;;;;;;;;;;5031975;28;20013;-39
2023/02/03 06:17:29;;;;;;;6.38;3.97;;;;;;;;;;5031449;28;20114;-39
2023/02/03 06:19:54;;;;;;;10.80;4.38;;;;;;;;;;5031982;28;20036;-39
2023/02/03 06:22:20;;;;;;;8.90;4.57;;;;;;;;;;5031893;28;20037;-38
2023/02/03 06:24:46;;;;;;;10.00;4.65;;;;;;;;;;5031828;28;20017;-38
2023/02/03 06:27:12;;;;;;;7.57;4.38;;;;;;;;;;5032011;28;20056;-38
2023/02/03 06:29:38;;;;;;;12.13;5.53;;;;;;;;;;5031766;28;20487;-38
2023/02/03 06:32:03;;;;;;;9.32;5.45;;;;;;;;;;5031660;28;20036;-38
2023/02/03 06:34:28;;;;;;;11.52;5.10;;;;;;;;;;5032004;28;20533;-38
2023/02/03 06:36:54;;;;;;;6.53;4.38;;;;;;;;;;5031808;28;20034;-39
2023/02/03 06:39:19;;;;;;;13.60;6.47;;;;;;;;;;5031545;28;20010;-38
2023/02/03 06:41:45;;;;;;;7.50;4.53;;;;;;;;;;5031639;28;20064;-38
2023/02/03 06:44:10;;;;;;;11.38;5.90;;;;;;;;;;5031493;28;20069;-38
2023/02/03 06:46:36;;;;;;;10.07;5.22;;;;;;;;;;5031495;28;20030;-38
2023/02/03 06:49:02;;;;;;;12.93;5.32;;;;;;;;;;5031202;28;20543;-38
2023/02/03 06:51:27;;;;;;;8.95;4.38;;;;;;;;;;5031578;28;20056;-38
2023/02/03 06:53:52;;;;;;;12.00;4.70;;;;;;;;;;5031681;28;20017;-38
2023/02/03 06:56:18;;;;;;;7.78;4.20;;;;;;;;;;5031331;28;20104;-38
2023/02/03 06:58:43;;;;;;;11.38;5.10;;;;;;;;;;5063400;28;20637;-38
2023/02/03 07:01:09;;;;;;;8.68;4.53;;;;;;;;;;5031582;28;20041;-38
2023/02/03 07:03:34;;;;;;;10.35;5.53;;;;;;;;;;5031372;28;20492;-38
2023/02/03 07:06:00;;;;;;;10.45;5.18;;;;;;;;;;5031177;28;20056;-38
2023/02/03 07:08:25;;;;;;;10.55;5.18;;;;;;;;;;5031569;28;20030;-38
2023/02/03 07:10:54;;;;;;;9.38;3.90;;;;;;;;;;5031268;28;20033;-38
2023/02/03 07:13:19;;;;;;;6.50;3.80;;;;;;;;;;5031588;28;20025;-38
2023/02/03 07:15:45;;;;;;;12.57;5.90;;;;;;;;;;5031272;28;20041;-39
2023/02/03 07:18:10;;;;;;;13.90;6.00;;;;;;;;;;5030901;28;20049;-38
2023/02/03 07:20:36;;;;;;;10.23;4.75;;;;;;;;;;5031492;28;20056;-38
2023/02/03 07:23:01;;;;;;;9.80;5.05;;;;;;;;;;5031203;28;20110;-38
2023/02/03 07:25:27;;;;;;;6.75;4.32;;;;;;;;;;5031489;28;20105;-38
2023/02/03 07:27:52;;;;;;;9.43;5.43;;;;;;;;;;5031382;28;20071;-38
2023/02/03 07:30:18;;;;;;;10.77;5.70;;;;;;;;;;5031380;28;20026;-38
2023/02/03 07:32:50;;;;;;;7.70;4.50;;;;;;;;;;5031341;28;20476;-38
2023/02/03 07:35:15;;;;;;;7.22;3.90;;;;;;;;;;5031229;28;20045;-38
2023/02/03 07:37:41;;;;;;;8.88;5.60;;;;;;;;;;5030912;28;20424;-39
2023/02/03 07:40:07;;;;;;;8.60;5.10;;;;;;;;;;5030988;28;20038;-38
2023/02/03 07:42:33;;;;;;;8.77;4.85;;;;;;;;;;5030988;28;20036;-38
2023/02/03 07:44:58;;;;;;;9.35;4.20;;;;;;;;;;5030954;28;20052;-38
2023/02/03 07:47:24;;;;;;;8.88;4.80;;;;;;;;;;5030963;28;20030;-38
2023/02/03 07:49:49;;;;;;;11.30;4.43;;;;;;;;;;5031172;28;20026;-38
2023/02/03 07:52:14;;;;;;;13.02;5.18;;;;;;;;;;5030856;28;20025;-38
2023/02/03 07:54:40;;;;;;;11.93;5.30;;;;;;;;;;5031168;28;20108;-38
2023/02/03 07:57:05;;;;;;;9.00;5.00;;;;;;;;;;5030681;28;20029;-38
2023/02/03 07:59:31;;;;;;;10.30;5.22;;;;;;;;;;5031069;28;20117;-38
2023/02/03 08:01:56;;;;;;;10.25;5.32;;;;;;;;;;5034692;28;20112;-38
2023/02/03 08:04:23;;;;;;;9.20;6.85;;;;;;;;;;5034759;28;20060;-38
2023/02/03 08:06:48;;;;;;;7.53;4.10;;;;;;;;;;5034474;28;20067;-39
2023/02/03 08:09:14;;;;;;;16.27;5.50;;;;;;;;;;5034309;28;20029;-39
2023/02/03 08:11:39;;;;;;;12.32;5.75;;;;;;;;;;5034625;28;20048;-38
2023/02/03 08:14:05;;;;;;;13.27;4.53;;;;;;;;;;5034524;28;20419;-38
2023/02/03 08:16:30;;;;;;;6.43;4.28;;;;;;;;;;5034179;28;20070;-38
2023/02/03 08:18:57;;;;;;;15.75;6.18;;;;;;;;;;5032712;28;20084;-38
2023/02/03 08:21:22;;;;;;;8.43;5.20;;;;;;;;;;5034188;28;20032;-39
2023/02/03 08:23:48;;;;;;;7.78;4.57;;;;;;;;;;5034167;28;20473;-38
2023/02/03 08:26:13;;;;;;;5.93;3.70;;;;;;;;;;5033969;28;20041;-38
2023/02/03 08:28:39;;;;;;;13.00;6.70;;;;;;;;;;5034278;28;20044;-38
2023/02/03 08:31:10;;;;;;;10.45;5.18;;;;;;;;;;5034265;28;20133;-38
2023/02/03 08:33:36;;;;;;;11.05;5.78;;;;;;;;;;5033987;28;20090;-39
2023/02/03 08:36:02;;;;;;;11.50;5.63;;;;;;;;;;5032611;28;20056;-38
2023/02/03 08:38:27;;;;;;;15.15;6.20;;;;;;;;;;5033956;28;20117;-39
2023/02/03 08:40:53;;;;;;;8.10;5.03;;;;;;;;;;5034055;28;20018;-39
2023/02/03 08:43:18;;;;;;;13.07;6.60;;;;;;;;;;5033733;28;20108;-39
2023/02/03 08:45:44;;;;;;;9.27;5.00;;;;;;;;;;5033625;28;20017;-38
2023/02/03 08:48:09;;;;;;;6.70;4.22;;;;;;;;;;5033569;28;20056;-39
2023/02/03 08:50:35;;;;;;;11.07;4.75;;;;;;;;;;5033752;28;20075;-39
2023/02/03 08:53:00;;;;;;;15.57;6.28;;;;;;;;;;5033736;28;20040;-38
2023/02/03 08:55:25;;;;;;;10.65;5.68;;;;;;;;;;5033634;28;20376;-38
2023/02/03 08:57:51;;;;;;;17.27;6.60;;;;;;;;;;5033453;28;20037;-39
2023/02/03 09:00:17;;;;;;;10.23;5.95;;;;;;;;;;5033334;28;20017;-39
2023/02/03 09:02:42;;;;;;;16.63;5.93;;;;;;;;;;5033501;28;20040;-38
2023/02/03 09:05:08;;;;;;;7.68;4.45;;;;;;;;;;5033310;28;20029;-39
2023/02/03 09:07:34;;;;;;;9.77;4.20;;;;;;;;;;5033282;28;20037;-38
2023/02/03 09:09:59;;;;;;;15.30;5.30;;;;;;;;;;5033215;28;20025;-38
2023/02/03 09:12:25;;;;;;;5.72;3.63;;;;;;;;;;5033223;28;20033;-38
2023/02/03 09:14:50;;;;;;;10.20;5.43;;;;;;;;;;5033179;28;20022;-39
2023/02/03 09:17:16;;;;;;;8.52;4.60;;;;;;;;;;5032957;28;20041;-38
2023/02/03 09:19:41;;;;;;;8.02;4.80;;;;;;;;;;5032966;28;20129;-38
2023/02/03 09:22:07;;;;;;;10.02;4.75;;;;;;;;;;5032963;28;20033;-39
2023/02/03 09:24:32;;;;;;;10.45;4.45;;;;;;;;;;5065074;28;20026;-38
2023/02/03 09:26:59;;;;;;;7.20;4.78;;;;;;;;;;5032938;28;20033;-39
2023/02/03 09:29:26;;;;;;;6.47;3.70;;;;;;;;;;5032816;28;20022;-39
2023/02/03 09:31:51;;;;;;;5.50;3.38;;;;;;;;;;5015231;28;20111;-38
2023/02/03 09:34:18;;;;;;;5.97;4.13;;;;;;;;;;5032979;28;20029;-39
2023/02/03 09:36:43;;;;;;;9.50;4.97;;;;;;;;;;5032929;28;20131;-38
2023/02/03 09:39:09;;;;;;;12.45;5.55;;;;;;;;;;5033006;28;20471;-39
2023/02/03 09:41:53;;;;;;;7.63;4.75;;;;;;;;;;5032634;28;20476;-38
2023/02/03 09:44:28;;;;;;;9.48;4.60;;;;;;;;;;5032512;28;20507;-38
2023/02/03 09:46:55;;;;;;;6.75;3.78;;;;;;;;;;5032563;28;20269;-39
2023/02/03 09:49:38;;;;;;;7.10;4.38;;;;;;;;;;5032420;28;20053;-38
2023/02/03 09:52:07;;;;;;;8.55;3.78;;;;;;;;;;5032410;28;20029;-39
2023/02/03 09:54:37;;;;;;;7.97;4.30;;;;;;;;;;5032713;28;20385;-39
2023/02/03 09:57:05;;;;;;;11.15;5.20;;;;;;;;;;5032211;28;20045;-39
2023/02/03 09:59:31;;;;;;;3.65;2.97;;;;;;;;;;5032659;28;20022;-39
2023/02/03 10:02:19;;;;;;;5.82;3.92;;;;;;;;;;5032249;28;20065;-39
2023/02/03 10:05:05;;;;;;;5.35;2.72;;;;;;;;;;5031020;28;20391;-39
2023/02/03 10:07:42;;;;;;;6.55;3.58;;;;;;;;;;5031737;28;20423;-39
2023/02/03 10:10:13;;;;;;;8.32;4.03;;;;;;;;;;5032007;28;20502;-38
2023/02/03 10:12:56;;;;;;;6.88;4.95;;;;;;;;;;5032267;28;20132;-38
2023/02/03 10:15:21;;;;;;;5.15;3.28;;;;;;;;;;5031922;28;20108;-38
2023/02/03 10:17:53;;;;;;;7.78;3.67;;;;;;;;;;5030463;28;20163;-38
2023/02/03 10:20:25;;;;;;;8.68;4.20;;;;;;;;;;5031928;28;20025;-39
2023/02/03 10:22:57;;;;;;;10.40;5.45;;;;;;;;;;5031733;28;20072;-39
2023/02/03 10:25:34;;;;;;;9.80;5.13;;;;;;;;;;5032034;28;20069;-39
2023/02/03 10:28:01;;;;;;;15.65;4.50;;;;;;;;;;5030449;28;20037;-39
2023/02/03 10:30:30;;;;;;;7.00;3.78;;;;;;;;;;5031839;28;20472;-38
2023/02/03 10:33:08;;;;;;;5.35;3.78;;;;;;;;;;5031712;28;20056;-39
2023/02/03 10:35:37;;;;;;;12.68;6.20;;;;;;;;;;5031806;28;20488;-39
2023/02/03 10:38:04;;;;;;;11.38;5.60;;;;;;;;;;5031447;28;20025;-39
2023/02/03 10:40:30;;;;;;;11.60;3.90;;;;;;;;;;5031585;28;20039;-38
2023/02/03 10:45:40;;;;;;;22.35;7.53;;;;;;;;;;5031549;28;20504;-39
2023/02/03 10:48:09;;;;;;;14.25;5.18;;;;;;;;;;5031710;28;20025;-38
2023/02/03 10:50:40;;;;;;;11.32;6.05;;;;;;;;;;5031526;28;20033;-39
2023/02/03 10:53:17;;;;;;;13.98;5.38;;;;;;;;;;5031470;28;20025;-39
2023/02/03 10:55:44;;;;;;;15.10;5.63;;;;;;;;;;5031386;28;20041;-38
2023/02/03 10:58:14;;;;;;;11.68;5.38;;;;;;;;;;5031223;28;20068;-39
2023/02/03 11:00:39;;;;;;;10.82;5.90;;;;;;;;;;5031674;28;20048;-38
2023/02/03 11:03:04;;;;;;;7.80;4.28;;;;;;;;;;5031345;28;20395;-38
2023/02/03 11:05:30;;;;;;;10.75;6.57;;;;;;;;;;5031421;28;20041;-39
2023/02/03 11:07:56;;;;;;;11.40;4.88;;;;;;;;;;5031532;28;20060;-39
2023/02/03 11:10:25;;;;;;;10.18;5.32;;;;;;;;;;5031233;28;20445;-38
2023/02/03 11:12:51;;;;;;;11.73;5.72;;;;;;;;;;5031355;28;20037;-38
2023/02/03 11:15:16;;;;;;;13.35;5.82;;;;;;;;;;5031249;28;20464;-39
2023/02/03 11:17:42;;;;;;;8.90;5.40;;;;;;;;;;5029633;28;20102;-39
2023/02/03 11:20:13;;;;;;;7.43;3.65;;;;;;;;;;5031462;28;20030;-38
2023/02/03 11:22:39;;;;;;;12.55;5.95;;;;;;;;;;5031201;28;20387;-39
2023/02/03 11:25:14;;;;;;;9.93;5.30;;;;;;;;;;5031050;28;20052;-38
2023/02/03 11:27:40;;;;;;;14.90;6.93;;;;;;;;;;5031143;28;20075;-44
2023/02/03 11:30:09;;;;;;;15.80;6.07;;;;;;;;;;5031329;28;20025;-38
2023/02/03 11:32:35;;;;;;;10.60;5.68;;;;;;;;;;5031088;28;20057;-39
2023/02/03 11:35:02;;;;;;;19.05;6.40;;;;;;;;;;5032105;28;20467;-38
2023/02/03 11:37:38;;;;;;;18.00;6.90;;;;;;;;;;5035069;28;20056;-38
2023/02/03 11:40:06;;;;;;;16.25;6.78;;;;;;;;;;5034861;28;20036;-39
2023/02/03 11:42:32;;;;;;;14.30;7.20;;;;;;;;;;5034966;28;20140;-39
2023/02/03 11:45:14;;;;;;;28.50;7.45;;;;;;;;;;5035045;28;20101;-39
2023/02/03 11:47:47;;;;;;;11.80;8.60;;;;;;;;;;5034802;28;20029;-38
2023/02/03 11:50:18;;;;;;;20.83;7.57;;;;;;;;;;5034937;28;20271;-39
2023/02/03 11:52:49;;;;;;;17.88;8.45;;;;;;;;;;5034643;28;20037;-39
2023/02/03 11:55:26;;;;;;;26.10;9.75;;;;;;;;;;5033627;28;20029;-39
2023/02/03 11:57:51;;;;;;;8.23;6.25;;;;;;;;;;5066562;28;20048;-39
2023/02/03 12:00:29;;;;;;;20.45;8.52;;;;;;;;;;5034552;28;20022;-39
2023/02/03 12:03:13;;;;;;;15.90;7.60;;;;;;;;;;5034612;28;20029;-38
2023/02/03 12:05:51;;;;;;;17.83;9.77;;;;;;;;;;5034695;28;20034;-38
2023/02/03 12:08:34;;;;;;;13.50;7.40;;;;;;;;;;5034335;28;20083;-39
2023/02/03 12:11:23;;;;;;;15.50;8.48;;;;;;;;;;5034268;28;20037;-38
2023/02/03 12:14:07;;;;;;;16.45;8.90;;;;;;;;;;5034304;28;20034;-39
2023/02/03 12:16:36;;;;;;;22.52;9.32;;;;;;;;;;5034193;28;20032;-38
2023/02/03 12:19:15;;;;;;;23.55;10.40;;;;;;;;;;5034006;28;20483;-38
2023/02/03 12:21:46;;;;;;;18.35;9.65;;;;;;;;;;5032976;28;20581;-38
2023/02/03 12:24:23;;;;;;;2.53;1.90;;;;;;;;;;5034045;28;20044;-39
2023/02/03 12:26:53;;;;;;;20.00;9.30;;;;;;;;;;5034069;28;20061;-39
2023/02/03 12:29:25;;;;;;;23.08;7.03;;;;;;;;;;5034030;28;20029;-39
2023/02/03 12:32:09;;;;;;;13.35;6.85;;;;;;;;;;5034084;28;20040;-39
2023/02/03 12:34:40;;;;;;;15.88;8.18;;;;;;;;;;5033978;28;20029;-39
2023/02/03 12:37:05;;;;;;;12.32;6.93;;;;;;;;;;5034053;28;20099;-39
2023/02/03 12:39:49;;;;;;;15.73;8.57;;;;;;;;;;5033926;28;20475;-38
2023/02/03 12:42:26;;;;;;;24.23;9.55;;;;;;;;;;5065521;28;20032;-39
2023/02/03 12:44:58;;;;;;;21.20;7.85;;;;;;;;;;5034038;28;20045;-39
2023/02/03 12:47:47;;;;;;;16.45;5.90;;;;;;;;;;5033545;28;20112;-39
2023/02/03 12:50:20;;;;;;;17.25;7.32;;;;;;;;;;5025565;28;20099;-40
2023/02/03 12:52:55;;;;;;;10.00;4.68;;;;;;;;;;5033689;28;20448;-39
2023/02/03 12:55:33;;;;;;;17.15;7.45;;;;;;;;;;5033527;28;20025;-39
2023/02/03 12:58:02;;;;;;;17.77;6.32;;;;;;;;;;5033491;28;20495;-39
2023/02/03 13:00:36;;;;;;;13.65;4.97;;;;;;;;;;5033843;28;20387;-39
2023/02/03 13:03:19;;;;;;;10.10;3.65;;;;;;;;;;5033272;28;20502;-39
2023/02/03 13:05:55;;;;;;;5.28;3.72;;;;;;;;;;5033404;28;20095;-39
2023/02/03 13:08:21;;;;;;;14.82;6.28;;;;;;;;;;5033267;28;20032;-38
2023/02/03 13:10:49;;;;;;;22.77;6.20;;;;;;;;;;5033589;28;20017;-39
2023/02/03 13:13:17;;;;;;;12.25;6.15;;;;;;;;;;5033196;28;20034;-38
2023/02/03 13:15:44;;;;;;;11.38;5.15;;;;;;;;;;5033262;28;20096;-39
2023/02/03 13:18:09;;;;;;;4.82;3.92;;;;;;;;;;5032850;28;20049;-39
2023/02/03 13:20:35;;;;;;;19.63;6.57;;;;;;;;;;5031962;28;20099;-39
2023/02/03 13:23:12;;;;;;;16.42;7.00;;;;;;;;;;5033018;28;20128;-40
2023/02/03 13:25:52;;;;;;;13.80;6.07;;;;;;;;;;5033333;28;20044;-38
2023/02/03 13:28:24;;;;;;;16.80;6.43;;;;;;;;;;5032916;28;20056;-39
2023/02/03 13:30:56;;;;;;;21.88;7.68;;;;;;;;;;5031614;28;20065;-39
2023/02/03 13:33:40;;;;;;;21.13;8.53;;;;;;;;;;5033112;28;20433;-39
2023/02/03 13:36:24;;;;;;;7.30;4.72;;;;;;;;;;5032713;28;20026;-39
2023/02/03 13:38:59;;;;;;;14.23;6.68;;;;;;;;;;5032959;28;20068;-38
2023/02/03 13:41:32;;;;;;;19.45;7.85;;;;;;;;;;5032712;28;20120;-40
2023/02/03 13:43:57;;;;;;;20.90;8.67;;;;;;;;;;5032934;28;20044;-39
2023/02/03 13:46:25;;;;;;;14.85;6.07;;;;;;;;;;5032503;28;20262;-38
2023/02/03 13:48:51;;;;;;;11.75;6.30;;;;;;;;;;5032787;28;20053;-39
2023/02/03 13:51:19;;;;;;;12.50;5.65;;;;;;;;;;5032440;28;20042;-39
2023/02/03 13:53:46;;;;;;;13.90;6.75;;;;;;;;;;5032571;28;20095;-39
2023/02/03 13:56:32;;;;;;;11.18;7.68;;;;;;;;;;5032405;28;20027;-39
2023/02/03 13:59:01;;;;;;;14.63;8.02;;;;;;;;;;5031869;28;20075;-39
2023/02/03 14:01:34;;;;;;;24.15;9.48;;;;;;;;;;5032347;28;20460;-39
2023/02/03 14:04:01;;;;;;;13.85;6.05;;;;;;;;;;5032427;28;20372;-39
2023/02/03 14:06:38;;;;;;;18.98;8.77;;;;;;;;;;5032414;28;20083;-39
2023/02/03 14:09:24;;;;;;;13.18;6.55;;;;;;;;;;5032086;28;20048;-38
2023/02/03 14:11:51;;;;;;;12.93;6.75;;;;;;;;;;5021652;28;20042;-39
2023/02/03 14:14:16;;;;;;;16.25;8.30;;;;;;;;;;5032084;28;20538;-41
2023/02/03 14:16:49;;;;;;;15.88;8.15;;;;;;;;;;5031895;28;20038;-39
2023/02/03 14:19:20;;;;;;;21.13;8.63;;;;;;;;;;5031810;28;20111;-39
2023/02/03 14:21:46;;;;;;;18.88;9.07;;;;;;;;;;5031891;28;20120;-39
2023/02/03 14:24:12;;;;;;;12.32;7.25;;;;;;;;;;5030978;28;20423;-38
2023/02/03 14:26:44;;;;;;;13.80;7.53;;;;;;;;;;5031844;28;20049;-38
2023/02/03 14:29:23;;;;;;;26.52;8.18;;;;;;;;;;5031792;28;20033;-38
2023/02/03 14:31:57;;;;;;;14.52;5.55;;;;;;;;;;5030592;28;20531;-39
2023/02/03 14:34:29;;;;;;;19.67;9.85;;;;;;;;;;5031956;28;20095;-39
2023/02/03 14:36:54;;;;;;;19.10;9.23;;;;;;;;;;5031559;28;20041;-39
2023/02/03 14:39:26;;;;;;;14.70;7.72;;;;;;;;;;5031659;28;20091;-39
2023/02/03 14:41:54;;;;;;;19.55;7.68;;;;;;;;;;5031616;28;20056;-39
2023/02/03 14:44:26;;;;;;;16.83;6.55;;;;;;;;;;5030398;28;20467;-39
2023/02/03 14:46:57;;;;;;;2.53;1.90;;;;;;;;;;5031862;28;20436;-39
2023/02/03 14:49:33;;;;;;;15.45;8.23;;;;;;;;;;5031758;28;20044;-39